Time;durP1;ratioP1;P1;durP2;ratioP2;P2;SDS_P1;SDS_P2;PMS_P1;PMS_P2;Temp;Humidity;BMP_temperature;BMP_pressure;BME280_temperature;BME280_humidity;BME280_pressure;Samples;Min_cycle;Max_cycle;Signal;HPM_P1;HPM_P2
2023/08/20 00:00:36;;;;;;;7.78;2.65;;;16.70;99.90;;;;;;5056925;28;20209;-78
2023/08/20 00:03:12;;;;;;;9.73;2.83;;;16.70;99.90;;;;;;5071868;28;20048;-79
2023/08/20 00:05:39;;;;;;;6.38;2.15;;;16.70;99.90;;;;;;5073437;28;20044;-80
2023/08/20 00:08:04;;;;;;;6.40;1.85;;;16.70;99.90;;;;;;5073818;28;20051;-80
2023/08/20 00:10:31;;;;;;;2.95;1.10;;;16.70;99.90;;;;;;5056721;28;20044;-80
2023/08/20 00:12:57;;;;;;;2.75;1.15;;;16.70;99.90;;;;;;5071515;28;20036;-80
2023/08/20 00:15:26;;;;;;;5.47;1.50;;;16.60;99.90;;;;;;5053202;28;20036;-79
2023/08/20 00:17:52;;;;;;;3.33;1.52;;;16.50;99.90;;;;;;5056702;28;20123;-78
2023/08/20 00:20:19;;;;;;;5.95;1.92;;;16.50;99.90;;;;;;5074472;28;20040;-77
2023/08/20 00:22:45;;;;;;;4.82;1.80;;;16.40;99.90;;;;;;5073230;28;20048;-77
2023/08/20 00:25:13;;;;;;;4.35;1.92;;;16.30;99.90;;;;;;5065538;28;20085;-77
2023/08/20 00:27:42;;;;;;;3.80;1.90;;;16.30;99.90;;;;;;5053144;28;20587;-77
2023/08/20 00:30:09;;;;;;;5.68;2.20;;;16.30;99.90;;;;;;5054278;28;20045;-77
2023/08/20 00:32:35;;;;;;;5.65;2.72;;;16.30;99.90;;;;;;5036599;28;20045;-77
2023/08/20 00:35:02;;;;;;;6.05;2.60;;;16.30;99.90;;;;;;5061805;28;21454;-77
2023/08/20 00:37:28;;;;;;;7.50;2.50;;;16.30;99.90;;;;;;5058329;28;20078;-77
2023/08/20 00:39:54;;;;;;;5.05;1.83;;;16.30;99.90;;;;;;5043127;28;20493;-77
2023/08/20 00:42:19;;;;;;;4.25;1.85;;;16.20;99.90;;;;;;5045630;28;20041;-77
2023/08/20 00:44:45;;;;;;;7.70;2.38;;;16.30;99.90;;;;;;5021632;28;20486;-78
2023/08/20 00:47:12;;;;;;;3.05;1.52;;;16.30;99.90;;;;;;5044448;28;20032;-76
2023/08/20 00:49:38;;;;;;;5.55;1.90;;;16.30;99.90;;;;;;5038372;28;20088;-77
2023/08/20 00:52:04;;;;;;;3.88;1.60;;;16.20;99.90;;;;;;5036083;28;20045;-77
2023/08/20 00:54:32;;;;;;;4.80;1.70;;;16.20;99.90;;;;;;5045125;28;20044;-76
2023/08/20 00:57:00;;;;;;;4.97;1.70;;;16.20;99.90;;;;;;5034850;28;20528;-76
2023/08/20 00:59:26;;;;;;;6.60;2.10;;;16.10;99.90;;;;;;5051441;28;20090;-77
2023/08/20 01:01:52;;;;;;;6.28;2.00;;;16.10;99.90;;;;;;5054789;28;20044;-78
2023/08/20 01:04:17;;;;;;;4.32;1.63;;;16.00;99.90;;;;;;5052294;28;20025;-77
2023/08/20 01:07:30;;;;;;;7.95;2.17;;;16.00;99.90;;;;;;5049000;28;20049;-77
2023/08/20 01:10:35;;;;;;;5.38;2.08;;;16.10;99.90;;;;;;5062183;28;20067;-78
2023/08/20 01:13:00;;;;;;;5.57;2.17;;;16.00;99.90;;;;;;5048510;28;20523;-78
2023/08/20 01:15:26;;;;;;;5.63;2.33;;;16.00;99.90;;;;;;5083251;28;20041;-77
2023/08/20 01:17:51;;;;;;;4.78;2.10;;;16.00;99.90;;;;;;5066175;28;20051;-78
2023/08/20 01:20:18;;;;;;;4.72;1.75;;;15.90;99.90;;;;;;5048877;28;20128;-77
2023/08/20 01:22:53;;;;;;;4.63;1.50;;;16.00;99.90;;;;;;5055395;28;20052;-77
2023/08/20 01:25:21;;;;;;;4.25;1.80;;;16.00;99.90;;;;;;5068201;28;20055;-78
2023/08/20 01:28:25;;;;;;;3.70;1.70;;;16.00;99.90;;;;;;5071149;28;20125;-77
2023/08/20 01:30:52;;;;;;;4.15;1.70;;;15.90;99.90;;;;;;5005484;28;20111;-78
2023/08/20 01:33:18;;;;;;;2.67;1.55;;;15.90;99.90;;;;;;5049451;28;20041;-78
2023/08/20 01:35:44;;;;;;;2.53;1.63;;;15.80;99.90;;;;;;5057936;28;20037;-79
2023/08/20 01:38:09;;;;;;;4.40;1.45;;;15.80;99.90;;;;;;5045203;28;20095;-78
2023/08/20 01:40:35;;;;;;;3.45;1.20;;;15.80;99.90;;;;;;5035208;28;20420;-78
2023/08/20 01:43:00;;;;;;;2.83;1.10;;;15.70;99.90;;;;;;5053058;28;20090;-78
2023/08/20 01:45:26;;;;;;;2.72;1.35;;;15.70;99.90;;;;;;5056101;28;20440;-78
2023/08/20 01:47:52;;;;;;;2.92;1.40;;;15.70;99.90;;;;;;5066168;28;20039;-77
2023/08/20 01:50:18;;;;;;;2.53;1.40;;;15.70;99.90;;;;;;5061723;28;20045;-77
2023/08/20 01:52:43;;;;;;;4.72;1.85;;;15.70;99.90;;;;;;5048301;28;20085;-77
2023/08/20 01:55:09;;;;;;;5.75;2.10;;;15.70;99.90;;;;;;5087472;28;20040;-77
2023/08/20 01:57:34;;;;;;;5.03;2.28;;;15.70;99.90;;;;;;5071808;28;20040;-77
2023/08/20 02:00:00;;;;;;;4.85;1.90;;;15.60;99.90;;;;;;5053794;28;20043;-77
2023/08/20 02:02:26;;;;;;;2.72;1.42;;;15.60;99.90;;;;;;5049122;28;20502;-77
2023/08/20 02:04:51;;;;;;;4.78;1.60;;;15.60;99.90;;;;;;5069882;28;20078;-78
2023/08/20 02:07:17;;;;;;;7.07;2.10;;;15.60;99.90;;;;;;5066145;28;20520;-77
2023/08/20 02:09:42;;;;;;;4.32;1.77;;;15.60;99.90;;;;;;5040175;28;20045;-77
2023/08/20 02:12:08;;;;;;;3.78;2.20;;;15.60;99.90;;;;;;5051478;28;20118;-77
2023/08/20 02:14:34;;;;;;;5.35;2.15;;;15.60;99.90;;;;;;5040302;28;20087;-78
2023/08/20 02:17:01;;;;;;;3.80;1.63;;;15.60;99.90;;;;;;5054810;28;20124;-78
2023/08/20 02:19:27;;;;;;;4.15;2.00;;;15.60;99.90;;;;;;5069537;28;20492;-77
2023/08/20 02:21:53;;;;;;;3.75;1.48;;;15.50;99.90;;;;;;5051426;28;20058;-77
2023/08/20 02:24:19;;;;;;;3.30;1.60;;;15.40;99.90;;;;;;5070145;28;20562;-77
2023/08/20 02:26:44;;;;;;;5.85;2.15;;;15.40;99.90;;;;;;5071246;28;20048;-76
2023/08/20 02:29:10;;;;;;;6.72;2.22;;;15.40;99.90;;;;;;5053711;28;20377;-77
2023/08/20 02:31:36;;;;;;;4.05;2.08;;;15.30;99.90;;;;;;5050603;28;20123;-76
2023/08/20 02:34:02;;;;;;;5.00;1.30;;;15.20;99.90;;;;;;5052547;28;20032;-76
2023/08/20 02:36:27;;;;;;;2.90;1.60;;;15.20;99.90;;;;;;5069955;28;20488;-79
2023/08/20 02:38:53;;;;;;;4.57;1.75;;;15.20;99.90;;;;;;5044588;28;20432;-79
2023/08/20 02:41:18;;;;;;;3.50;1.50;;;15.20;99.90;;;;;;5054848;28;20032;-77
2023/08/20 02:43:45;;;;;;;3.92;1.90;;;15.10;99.90;;;;;;5054984;28;20524;-78
2023/08/20 02:46:10;;;;;;;3.85;2.00;;;15.10;99.90;;;;;;5038367;28;20033;-78
2023/08/20 02:48:36;;;;;;;6.55;2.13;;;15.10;99.90;;;;;;5069305;28;20132;-78
2023/08/20 02:51:02;;;;;;;5.75;2.60;;;15.10;99.90;;;;;;5058162;28;20427;-80
2023/08/20 02:53:28;;;;;;;5.20;2.58;;;15.10;99.90;;;;;;5068932;28;20032;-79
2023/08/20 02:55:54;;;;;;;4.80;2.33;;;15.00;99.90;;;;;;5024635;28;20033;-78
2023/08/20 02:58:20;;;;;;;6.55;3.17;;;15.00;99.90;;;;;;5073603;28;20377;-79
2023/08/20 03:00:46;;;;;;;5.10;2.88;;;15.00;99.90;;;;;;5051009;28;20025;-78
2023/08/20 03:03:11;;;;;;;6.10;2.95;;;15.00;99.90;;;;;;5052956;28;20078;-78
2023/08/20 03:05:37;;;;;;;5.22;2.88;;;15.00;99.90;;;;;;5074691;28;20142;-77
2023/08/20 03:08:03;;;;;;;7.55;3.13;;;15.10;99.90;;;;;;5073642;28;20040;-77
2023/08/20 03:10:31;;;;;;;6.88;3.80;;;15.00;99.90;;;;;;5067505;28;20041;-77
2023/08/20 03:12:57;;;;;;;7.60;4.05;;;15.00;99.90;;;;;;5070416;28;20032;-77
2023/08/20 03:15:22;;;;;;;8.20;4.38;;;15.00;99.90;;;;;;5060933;28;20143;-78
2023/08/20 03:17:48;;;;;;;8.38;4.30;;;15.10;99.90;;;;;;5072171;28;20033;-78
2023/08/20 03:20:13;;;;;;;11.68;4.75;;;15.20;99.90;;;;;;5073590;28;20048;-78
2023/08/20 03:22:39;;;;;;;10.45;4.65;;;15.10;99.90;;;;;;5053578;28;20079;-77
2023/08/20 03:25:05;;;;;;;8.95;4.95;;;15.20;99.90;;;;;;5072580;28;20033;-77
2023/08/20 03:27:31;;;;;;;8.38;4.50;;;15.10;99.90;;;;;;5055927;28;20048;-77
2023/08/20 03:29:57;;;;;;;9.02;4.72;;;15.10;99.90;;;;;;5072629;28;20508;-77
2023/08/20 03:32:23;;;;;;;10.55;4.50;;;15.10;99.90;;;;;;5055110;28;20659;-77
2023/08/20 03:34:48;;;;;;;9.55;4.10;;;15.10;99.90;;;;;;5053821;28;20040;-78
2023/08/20 03:37:14;;;;;;;8.82;3.78;;;15.20;99.90;;;;;;5071244;28;20437;-77
2023/08/20 03:39:40;;;;;;;8.00;4.07;;;15.10;99.90;;;;;;5072730;28;20141;-78
2023/08/20 03:42:05;;;;;;;8.70;3.60;;;15.10;99.90;;;;;;5072633;28;20394;-77
2023/08/20 03:44:31;;;;;;;8.40;3.90;;;15.10;99.90;;;;;;5066905;28;20068;-77
2023/08/20 03:46:57;;;;;;;7.00;3.85;;;15.20;99.90;;;;;;5051713;28;20064;-77
2023/08/20 03:49:22;;;;;;;7.15;3.63;;;15.10;99.90;;;;;;5050274;28;20066;-78
2023/08/20 03:51:48;;;;;;;7.30;3.80;;;15.10;99.90;;;;;;5064579;28;20033;-78
2023/08/20 03:54:14;;;;;;;6.90;4.30;;;15.00;99.90;;;;;;5071416;28;20093;-78
2023/08/20 03:56:39;;;;;;;8.90;3.20;;;15.10;99.90;;;;;;5071260;28;20408;-78
2023/08/20 03:59:05;;;;;;;6.47;3.55;;;15.10;99.90;;;;;;5072209;28;20040;-77
2023/08/20 04:01:31;;;;;;;9.23;3.60;;;15.00;99.90;;;;;;5072006;28;20029;-77
2023/08/20 04:03:56;;;;;;;6.97;3.35;;;15.00;99.90;;;;;;5055471;28;20036;-77
2023/08/20 04:06:22;;;;;;;6.50;3.00;;;15.00;99.90;;;;;;5069290;28;20024;-77
2023/08/20 04:08:48;;;;;;;7.13;2.95;;;15.00;99.90;;;;;;5055376;28;20032;-77
2023/08/20 04:11:14;;;;;;;7.97;4.05;;;14.90;99.90;;;;;;5069706;28;20040;-77
2023/08/20 04:13:42;;;;;;;8.65;3.90;;;14.90;99.90;;;;;;5063502;28;20036;-77
2023/08/20 04:16:08;;;;;;;7.20;4.05;;;14.90;99.90;;;;;;5036436;28;20033;-78
2023/08/20 04:18:34;;;;;;;7.18;4.30;;;14.80;99.90;;;;;;5070738;28;20109;-77
2023/08/20 04:20:59;;;;;;;7.95;4.47;;;14.80;99.90;;;;;;5074889;28;20038;-77
2023/08/20 04:23:25;;;;;;;7.80;4.50;;;14.70;99.90;;;;;;5046287;28;20083;-77
2023/08/20 04:25:50;;;;;;;8.55;4.65;;;14.80;99.90;;;;;;5036828;28;20052;-77
2023/08/20 04:28:16;;;;;;;7.18;4.43;;;14.80;99.90;;;;;;5052829;28;20557;-77
2023/08/20 04:30:42;;;;;;;8.38;4.40;;;14.80;99.90;;;;;;5052974;28;20053;-77
2023/08/20 04:33:07;;;;;;;8.48;4.90;;;14.80;99.90;;;;;;5054441;28;20071;-77
2023/08/20 04:35:33;;;;;;;8.55;4.60;;;14.80;99.90;;;;;;5053024;28;20086;-77
2023/08/20 04:37:59;;;;;;;9.57;4.97;;;14.80;99.90;;;;;;5052881;28;20087;-77
2023/08/20 04:40:25;;;;;;;8.02;4.85;;;14.70;99.90;;;;;;5054600;28;20040;-77
2023/08/20 04:42:51;;;;;;;10.10;5.43;;;14.60;99.90;;;;;;5052872;28;20497;-77
2023/08/20 04:45:19;;;;;;;7.90;3.45;;;14.60;99.90;;;;;;5052860;28;20087;-78
2023/08/20 04:47:45;;;;;;;7.35;3.10;;;14.70;99.90;;;;;;5052954;28;20401;-77
2023/08/20 04:50:11;;;;;;;8.55;3.40;;;14.70;99.90;;;;;;5052856;28;20052;-78
2023/08/20 04:52:36;;;;;;;6.47;2.75;;;14.70;99.90;;;;;;5052927;28;20028;-77
2023/08/20 04:55:02;;;;;;;4.88;2.22;;;14.80;99.90;;;;;;5052656;28;20040;-77
2023/08/20 04:57:28;;;;;;;2.80;1.67;;;14.80;99.90;;;;;;5053094;28;20048;-78
2023/08/20 04:59:54;;;;;;;2.42;1.67;;;14.80;99.90;;;;;;5053976;28;20397;-77
2023/08/20 05:02:19;;;;;;;4.63;1.90;;;14.80;99.90;;;;;;5035792;28;20044;-77
2023/08/20 05:04:45;;;;;;;6.07;2.35;;;14.80;99.90;;;;;;5053700;28;20461;-77
2023/08/20 05:07:11;;;;;;;4.60;2.40;;;14.80;99.90;;;;;;5036087;28;20193;-78
2023/08/20 05:09:36;;;;;;;5.70;2.28;;;14.80;99.90;;;;;;5052327;28;20490;-78
2023/08/20 05:12:02;;;;;;;6.30;2.60;;;14.80;99.90;;;;;;5052524;28;20037;-78
2023/08/20 05:14:29;;;;;;;4.22;2.15;;;14.80;99.90;;;;;;5054244;28;20124;-78
2023/08/20 05:16:54;;;;;;;5.57;2.58;;;14.80;99.90;;;;;;5052451;28;20045;-78
2023/08/20 05:19:20;;;;;;;4.22;2.72;;;14.80;99.90;;;;;;5053434;28;20481;-78
2023/08/20 05:21:46;;;;;;;4.85;2.42;;;14.80;99.90;;;;;;5052348;28;20369;-78
2023/08/20 05:24:11;;;;;;;5.90;2.65;;;14.80;99.90;;;;;;5062550;28;20102;-78
2023/08/20 05:26:37;;;;;;;5.55;2.70;;;14.80;99.90;;;;;;5059228;28;20075;-78
2023/08/20 05:29:02;;;;;;;5.43;3.00;;;14.80;99.90;;;;;;5054071;28;20127;-78
2023/08/20 05:31:28;;;;;;;6.57;3.50;;;14.80;99.90;;;;;;5065845;28;20488;-78
2023/08/20 05:33:55;;;;;;;7.63;3.92;;;14.90;99.90;;;;;;5071763;28;20048;-78
2023/08/20 05:36:20;;;;;;;6.32;3.33;;;14.90;99.90;;;;;;5072121;28;20123;-78
2023/08/20 05:38:46;;;;;;;5.53;2.50;;;15.00;99.90;;;;;;5050449;28;20115;-78
2023/08/20 05:41:11;;;;;;;6.78;2.80;;;15.00;99.90;;;;;;5040321;28;20474;-79
2023/08/20 05:43:37;;;;;;;7.85;4.07;;;15.00;99.90;;;;;;5044501;28;20090;-78
2023/08/20 05:46:03;;;;;;;5.25;3.30;;;15.00;99.90;;;;;;5034299;28;20128;-78
2023/08/20 05:48:29;;;;;;;6.53;3.75;;;15.10;99.90;;;;;;5054929;28;20051;-77
2023/08/20 05:50:55;;;;;;;7.22;3.90;;;15.10;99.90;;;;;;5045988;28;20036;-78
2023/08/20 05:53:22;;;;;;;8.60;3.88;;;15.20;99.90;;;;;;5058496;28;20046;-78
2023/08/20 05:55:48;;;;;;;8.35;4.97;;;15.20;99.90;;;;;;5053660;28;20037;-77
2023/08/20 05:58:14;;;;;;;10.13;5.28;;;15.30;99.90;;;;;;5048051;28;20141;-78
2023/08/20 06:00:39;;;;;;;9.65;5.95;;;15.40;99.90;;;;;;5066887;28;20044;-78
2023/08/20 06:03:07;;;;;;;10.73;6.72;;;15.60;99.90;;;;;;5051293;28;20044;-78
2023/08/20 06:05:33;;;;;;;11.55;6.80;;;15.60;99.90;;;;;;5061971;28;20115;-78
2023/08/20 06:07:58;;;;;;;11.95;7.20;;;15.70;99.90;;;;;;5050409;28;20040;-78
2023/08/20 06:10:24;;;;;;;12.55;7.13;;;15.80;99.90;;;;;;5042241;28;20120;-77
2023/08/20 06:12:50;;;;;;;15.15;7.88;;;15.90;99.90;;;;;;5042446;28;20032;-77
2023/08/20 06:15:15;;;;;;;12.60;7.57;;;16.00;99.90;;;;;;5052083;28;20041;-78
2023/08/20 06:17:41;;;;;;;13.00;7.75;;;16.10;99.90;;;;;;5038223;28;20033;-77
2023/08/20 06:20:08;;;;;;;13.50;8.38;;;16.20;99.90;;;;;;5051870;28;20067;-77
2023/08/20 06:22:34;;;;;;;12.30;7.60;;;16.30;99.90;;;;;;5049895;28;20519;-77
2023/08/20 06:25:00;;;;;;;13.45;7.80;;;16.50;99.90;;;;;;5055236;28;20036;-77
2023/08/20 06:27:25;;;;;;;14.00;7.75;;;16.50;99.90;;;;;;5044009;28;20050;-77
2023/08/20 06:29:51;;;;;;;15.00;8.15;;;16.70;99.90;;;;;;5052674;28;20044;-77
2023/08/20 06:32:17;;;;;;;13.55;8.15;;;16.70;99.90;;;;;;5073242;28;20063;-77
2023/08/20 06:34:42;;;;;;;13.07;7.22;;;16.80;99.90;;;;;;5050217;28;20091;-77
2023/08/20 06:37:08;;;;;;;16.17;8.10;;;16.90;99.90;;;;;;5038133;28;20083;-77
2023/08/20 06:39:33;;;;;;;13.88;7.88;;;17.00;99.90;;;;;;5063653;28;20119;-77
2023/08/20 06:41:59;;;;;;;13.65;7.22;;;17.00;99.90;;;;;;5073013;28;20112;-77
2023/08/20 06:44:24;;;;;;;12.05;6.90;;;17.10;99.90;;;;;;5038383;28;20044;-77
2023/08/20 06:46:50;;;;;;;15.38;7.30;;;17.20;99.90;;;;;;5036114;28;20466;-77
2023/08/20 06:49:16;;;;;;;13.00;6.72;;;17.30;99.90;;;;;;5052849;28;20044;-77
2023/08/20 06:51:41;;;;;;;12.30;6.63;;;17.40;99.90;;;;;;5055987;28;20056;-78
2023/08/20 06:54:07;;;;;;;11.15;6.47;;;17.40;99.90;;;;;;5058154;28;20415;-78
2023/08/20 06:56:33;;;;;;;12.73;6.50;;;17.50;99.90;;;;;;5072727;28;20511;-78
2023/08/20 06:59:00;;;;;;;13.93;6.10;;;17.60;99.90;;;;;;5074668;28;20044;-78
2023/08/20 07:01:25;;;;;;;13.23;6.20;;;17.60;99.90;;;;;;5054964;28;20398;-79
2023/08/20 07:03:51;;;;;;;11.85;6.03;;;17.70;99.90;;;;;;5051256;28;20044;-79
2023/08/20 07:06:18;;;;;;;15.25;6.22;;;17.80;99.90;;;;;;5043724;28;20115;-79
2023/08/20 07:08:44;;;;;;;12.38;5.75;;;17.90;99.90;;;;;;5073136;28;20036;-79
2023/08/20 07:11:09;;;;;;;10.93;5.38;;;17.90;99.90;;;;;;5061396;28;20086;-79
2023/08/20 07:13:35;;;;;;;12.25;5.20;;;18.00;99.90;;;;;;5078559;28;20036;-79
2023/08/20 07:16:01;;;;;;;13.65;5.20;;;18.20;99.90;;;;;;5056406;28;20538;-78
2023/08/20 07:18:27;;;;;;;13.05;4.78;;;18.30;99.90;;;;;;5034479;28;20033;-79
2023/08/20 07:20:52;;;;;;;12.57;4.03;;;18.40;99.90;;;;;;5068455;28;20055;-78
2023/08/20 07:23:18;;;;;;;10.73;4.07;;;18.50;99.90;;;;;;5072476;28;20071;-79
2023/08/20 07:25:46;;;;;;;11.93;4.43;;;18.60;99.90;;;;;;5054854;28;20114;-78
2023/08/20 07:28:13;;;;;;;12.15;3.88;;;18.70;99.90;;;;;;5067149;28;20052;-78
2023/08/20 07:30:38;;;;;;;11.23;4.00;;;18.80;99.90;;;;;;5072799;28;20412;-78
2023/08/20 07:33:06;;;;;;;11.50;4.03;;;18.90;99.90;;;;;;5045689;28;20044;-79
2023/08/20 07:35:31;;;;;;;13.70;3.83;;;19.00;99.90;;;;;;5062529;28;20029;-78
2023/08/20 07:37:57;;;;;;;14.75;3.58;;;19.00;99.90;;;;;;5072934;28;20035;-76
2023/08/20 07:40:22;;;;;;;15.50;4.15;;;19.10;99.90;;;;;;5057306;28;20588;-76
2023/08/20 07:42:50;;;;;;;16.02;4.63;;;19.20;99.90;;;;;;5074324;28;20040;-79
2023/08/20 07:45:16;;;;;;;12.32;3.30;;;19.30;99.90;;;;;;5053390;28;20051;-79
2023/08/20 07:47:42;;;;;;;12.57;3.47;;;19.40;99.90;;;;;;5050292;28;20048;-79
2023/08/20 07:50:08;;;;;;;11.10;3.28;;;19.50;99.90;;;;;;5060420;28;20051;-79
2023/08/20 07:52:33;;;;;;;14.13;3.15;;;19.60;99.90;;;;;;5037235;28;20048;-79
2023/08/20 07:54:59;;;;;;;12.98;3.30;;;19.70;99.90;;;;;;5064808;28;20036;-79
2023/08/20 07:57:25;;;;;;;11.40;2.88;;;19.70;99.90;;;;;;5055572;28;20036;-78
2023/08/20 07:59:50;;;;;;;12.02;2.70;;;19.80;99.90;;;;;;5073775;28;20032;-79
2023/08/20 08:02:16;;;;;;;13.55;3.63;;;19.80;99.90;;;;;;5075038;28;20068;-78
2023/08/20 08:04:42;;;;;;;11.02;2.97;;;19.80;99.90;;;;;;5038730;28;20049;-78
2023/08/20 08:07:08;;;;;;;10.88;2.85;;;19.90;99.90;;;;;;5058432;28;20039;-78
2023/08/20 08:09:34;;;;;;;9.40;2.88;;;20.10;99.90;;;;;;5056807;28;20076;-78
2023/08/20 08:12:00;;;;;;;8.43;2.65;;;20.10;99.90;;;;;;5056747;28;20079;-78
2023/08/20 08:14:26;;;;;;;10.20;2.30;;;20.20;99.90;;;;;;5055309;28;20446;-78
2023/08/20 08:16:52;;;;;;;9.00;2.42;;;20.30;99.90;;;;;;5047935;28;20389;-78
2023/08/20 08:19:19;;;;;;;13.15;3.13;;;20.30;99.90;;;;;;5062383;28;20162;-78
2023/08/20 08:21:45;;;;;;;11.70;2.63;;;20.40;99.90;;;;;;5073230;28;20044;-78
2023/08/20 08:24:11;;;;;;;12.18;2.47;;;20.40;99.90;;;;;;5040104;28;20064;-78
2023/08/20 08:26:37;;;;;;;13.25;2.45;;;20.50;99.90;;;;;;5033373;28;20057;-78
2023/08/20 08:29:03;;;;;;;9.75;2.20;;;20.60;99.90;;;;;;5033705;28;20516;-78
2023/08/20 08:31:29;;;;;;;9.70;2.58;;;20.60;99.90;;;;;;5060124;28;20033;-78
2023/08/20 08:33:55;;;;;;;10.60;2.10;;;20.60;99.90;;;;;;5042510;28;20559;-78
2023/08/20 08:36:21;;;;;;;9.00;2.13;;;20.70;99.90;;;;;;5052715;28;20037;-78
2023/08/20 08:38:46;;;;;;;10.70;2.20;;;20.70;99.90;;;;;;5029648;28;20037;-78
2023/08/20 08:41:13;;;;;;;11.55;2.15;;;20.90;99.90;;;;;;5036573;28;20527;-78
2023/08/20 08:43:39;;;;;;;11.35;2.20;;;20.90;99.90;;;;;;5050065;28;20440;-78
2023/08/20 08:46:08;;;;;;;10.30;1.92;;;21.00;99.90;;;;;;5031704;28;20069;-78
2023/08/20 08:48:37;;;;;;;10.57;2.03;;;21.00;99.90;;;;;;5066115;28;20044;-78
2023/08/20 08:51:03;;;;;;;10.00;2.03;;;21.10;99.90;;;;;;5075320;28;20041;-78
2023/08/20 08:53:32;;;;;;;10.55;2.30;;;21.10;99.90;;;;;;5053018;28;20098;-77
2023/08/20 08:55:58;;;;;;;7.70;1.83;;;21.30;99.90;;;;;;5036379;28;20508;-77
2023/08/20 08:58:23;;;;;;;10.30;2.72;;;21.30;99.90;;;;;;5069643;28;20119;-77
2023/08/20 09:00:49;;;;;;;10.50;2.05;;;21.40;99.90;;;;;;5053532;28;20085;-77
2023/08/20 09:03:15;;;;;;;10.60;1.90;;;21.50;99.90;;;;;;5047454;28;20104;-77
2023/08/20 09:05:48;;;;;;;8.77;1.70;;;21.60;99.90;;;;;;5039787;28;20032;-77
2023/08/20 09:08:21;;;;;;;7.68;1.70;;;21.60;99.90;;;;;;5053895;28;20036;-77
2023/08/20 09:10:51;;;;;;;7.70;1.90;;;21.70;99.90;;;;;;5062536;28;20571;-78
2023/08/20 09:13:17;;;;;;;10.27;1.98;;;21.80;99.90;;;;;;5066638;28;20051;-77
2023/08/20 09:15:42;;;;;;;9.13;2.03;;;21.80;99.90;;;;;;5052839;28;20045;-77
2023/08/20 09:18:11;;;;;;;9.27;1.50;;;21.90;99.90;;;;;;5054968;28;20393;-77
2023/08/20 09:20:37;;;;;;;6.40;1.40;;;21.90;99.90;;;;;;5054030;28;20037;-76
2023/08/20 09:23:03;;;;;;;7.55;1.92;;;22.00;99.90;;;;;;5062932;28;20047;-76
2023/08/20 09:25:29;;;;;;;6.45;1.58;;;22.10;99.90;;;;;;5070432;28;20040;-77
2023/08/20 09:27:55;;;;;;;8.43;2.00;;;22.20;99.90;;;;;;5049053;28;20051;-76
2023/08/20 09:30:20;;;;;;;8.60;2.13;;;22.20;99.90;;;;;;5048271;28;20041;-77
2023/08/20 09:33:07;;;;;;;7.82;1.92;;;22.30;99.90;;;;;;5029544;28;20038;-77
2023/08/20 09:35:33;;;;;;;9.25;1.80;;;22.20;99.90;;;;;;5048333;28;20036;-76
2023/08/20 09:38:03;;;;;;;8.23;1.80;;;22.20;99.90;;;;;;5031112;28;20037;-77
2023/08/20 09:40:29;;;;;;;5.72;1.65;;;22.30;99.90;;;;;;5043120;28;20045;-76
2023/08/20 09:42:56;;;;;;;8.73;1.90;;;22.40;99.90;;;;;;5022846;28;20059;-77
2023/08/20 09:45:27;;;;;;;5.70;1.45;;;22.50;99.90;;;;;;5035974;28;20481;-77
2023/08/20 09:47:55;;;;;;;6.57;1.55;;;22.60;99.90;;;;;;5034635;28;20037;-76
2023/08/20 09:50:22;;;;;;;9.73;2.00;;;22.70;99.90;;;;;;5034555;28;20071;-76
2023/08/20 09:53:03;;;;;;;7.22;1.73;;;22.60;99.90;;;;;;5035201;28;20033;-77
2023/08/20 09:55:33;;;;;;;7.78;1.88;;;22.40;99.90;;;;;;5036708;28;20048;-76
2023/08/20 09:58:01;;;;;;;5.38;1.60;;;22.40;99.90;;;;;;5051659;28;20432;-76
2023/08/20 10:00:27;;;;;;;7.32;1.40;;;22.60;99.90;;;;;;5028752;28;20030;-76
2023/08/20 10:02:53;;;;;;;7.22;1.58;;;22.70;99.90;;;;;;5062696;28;20119;-76
2023/08/20 10:05:20;;;;;;;11.05;2.08;;;22.80;99.90;;;;;;5032176;28;20546;-76
2023/08/20 10:07:47;;;;;;;9.68;1.92;;;22.80;99.90;;;;;;5055184;28;20032;-76
2023/08/20 10:10:13;;;;;;;7.70;1.80;;;22.90;99.90;;;;;;5032416;28;20535;-76
2023/08/20 10:12:40;;;;;;;8.20;1.83;;;23.00;99.90;;;;;;5063720;28;20123;-76
2023/08/20 10:15:08;;;;;;;8.40;2.20;;;23.00;99.90;;;;;;5043427;28;20041;-76
2023/08/20 10:17:34;;;;;;;8.80;1.77;;;22.90;99.90;;;;;;5035355;28;20520;-76
2023/08/20 10:20:03;;;;;;;9.15;1.83;;;22.90;99.90;;;;;;5045679;28;20149;-76
2023/08/20 10:22:33;;;;;;;8.82;1.80;;;22.90;99.90;;;;;;5030207;28;20053;-76
2023/08/20 10:25:02;;;;;;;8.15;1.70;;;22.90;99.90;;;;;;5044101;28;20044;-76
2023/08/20 10:27:31;;;;;;;10.07;2.00;;;22.80;99.90;;;;;;5042042;28;20057;-76
2023/08/20 10:29:59;;;;;;;8.85;2.10;;;22.90;99.90;;;;;;5053996;28;20037;-76
2023/08/20 10:32:58;;;;;;;7.78;1.80;;;22.90;99.90;;;;;;5038619;28;20065;-76
2023/08/20 10:35:50;;;;;;;7.82;1.63;;;23.00;99.90;;;;;;5026103;28;20050;-75
2023/08/20 10:38:19;;;;;;;6.75;1.60;;;23.00;99.90;;;;;;5021988;28;20382;-76
2023/08/20 10:40:58;;;;;;;8.05;1.73;;;23.10;99.90;;;;;;5049174;28;20381;-76
2023/08/20 10:43:33;;;;;;;7.13;1.58;;;23.10;99.90;;;;;;5026469;28;20041;-76
2023/08/20 10:46:05;;;;;;;11.60;2.00;;;23.10;99.90;;;;;;5050656;28;20079;-76
2023/08/20 10:48:36;;;;;;;6.82;1.63;;;23.20;99.90;;;;;;5036808;28;20041;-76
2023/08/20 10:51:16;;;;;;;9.85;1.90;;;23.30;99.90;;;;;;5033784;28;20033;-76
2023/08/20 10:53:48;;;;;;;7.13;1.40;;;23.20;99.90;;;;;;5046370;28;20032;-76
2023/08/20 10:56:16;;;;;;;8.20;1.80;;;23.30;99.90;;;;;;5061719;28;20038;-76
2023/08/20 10:58:46;;;;;;;5.60;1.30;;;23.30;99.90;;;;;;5045598;28;20091;-76
2023/08/20 11:01:20;;;;;;;5.53;1.40;;;23.30;99.90;;;;;;5037757;28;20421;-75
2023/08/20 11:03:48;;;;;;;6.20;1.60;;;23.30;99.90;;;;;;5031878;28;20033;-76
2023/08/20 11:06:14;;;;;;;8.90;1.60;;;23.40;99.90;;;;;;5050923;28;20037;-76
2023/08/20 11:08:41;;;;;;;7.18;1.85;;;23.40;99.90;;;;;;5053546;28;20111;-76
2023/08/20 11:11:07;;;;;;;7.05;1.40;;;23.50;99.90;;;;;;5037313;28;20052;-76
2023/08/20 11:13:34;;;;;;;8.05;1.60;;;23.40;99.90;;;;;;5055320;28;20084;-76
2023/08/20 11:16:02;;;;;;;8.07;1.42;;;23.50;99.90;;;;;;5052599;28;20115;-76
2023/08/20 11:18:28;;;;;;;6.63;1.23;;;23.50;99.90;;;;;;5046306;28;20072;-76
2023/08/20 11:20:54;;;;;;;5.45;1.50;;;23.60;99.90;;;;;;5040907;28;20079;-76
2023/08/20 11:23:21;;;;;;;6.80;1.20;;;23.50;99.90;;;;;;5018354;28;20033;-76
2023/08/20 11:25:47;;;;;;;5.82;1.30;;;23.40;99.90;;;;;;5026696;28;20083;-76
2023/08/20 11:28:13;;;;;;;4.78;1.23;;;23.30;99.90;;;;;;5048976;28;20084;-76
2023/08/20 11:30:38;;;;;;;5.95;1.27;;;23.20;99.90;;;;;;5038269;28;20440;-76
2023/08/20 11:33:05;;;;;;;8.70;2.33;;;23.30;99.90;;;;;;5053465;28;20444;-76
2023/08/20 11:35:32;;;;;;;8.30;1.55;;;23.30;99.90;;;;;;5047922;28;20386;-76
2023/08/20 11:37:58;;;;;;;7.85;1.40;;;23.40;99.90;;;;;;5035106;28;20464;-76
2023/08/20 11:40:24;;;;;;;3.90;1.08;;;23.40;99.90;;;;;;5045519;28;20051;-76
2023/08/20 11:42:49;;;;;;;6.85;1.38;;;23.40;99.90;;;;;;5056386;28;20037;-75
2023/08/20 11:45:15;;;;;;;6.05;1.40;;;23.40;99.90;;;;;;5039046;28;20413;-76
2023/08/20 11:47:42;;;;;;;5.88;1.30;;;23.40;99.90;;;;;;5035521;28;20037;-76
2023/08/20 11:50:09;;;;;;;7.93;1.25;;;23.50;99.90;;;;;;5055574;28;20095;-76
2023/08/20 11:52:36;;;;;;;4.20;1.10;;;23.50;99.90;;;;;;5033509;28;20515;-76
2023/08/20 11:55:03;;;;;;;5.88;1.33;;;23.50;99.90;;;;;;5047681;28;20032;-76
2023/08/20 11:57:29;;;;;;;7.05;1.30;;;23.40;99.90;;;;;;5048583;28;20033;-76
2023/08/20 11:59:56;;;;;;;3.70;1.13;;;23.50;99.90;;;;;;5047453;28;20041;-76
2023/08/20 12:02:27;;;;;;;5.38;1.00;;;23.50;99.90;;;;;;5033029;28;20033;-76
2023/08/20 12:04:57;;;;;;;5.15;1.42;;;23.60;99.90;;;;;;5050966;28;20041;-76
2023/08/20 12:07:29;;;;;;;6.78;1.50;;;23.70;99.90;;;;;;5022125;28;20045;-76
2023/08/20 12:09:55;;;;;;;5.85;1.10;;;23.70;99.90;;;;;;5053055;28;20037;-76
2023/08/20 12:12:21;;;;;;;6.57;1.50;;;23.80;99.90;;;;;;5029338;28;20041;-75
2023/08/20 12:14:47;;;;;;;7.43;1.60;;;23.90;99.90;;;;;;5056859;28;20033;-76
2023/08/20 12:17:17;;;;;;;6.53;1.30;;;23.90;99.90;;;;;;5042009;28;20439;-75
2023/08/20 12:19:42;;;;;;;8.60;1.58;;;23.90;99.90;;;;;;5049096;28;20040;-76
2023/08/20 12:22:08;;;;;;;5.43;1.35;;;23.80;99.90;;;;;;5046366;28;20056;-75
2023/08/20 12:24:34;;;;;;;6.15;1.30;;;23.80;99.90;;;;;;5055337;28;20120;-76
2023/08/20 12:26:59;;;;;;;5.53;1.23;;;23.70;99.90;;;;;;5032747;28;20054;-75
2023/08/20 12:29:25;;;;;;;4.97;1.17;;;23.50;99.90;;;;;;5051121;28;20086;-76
2023/08/20 12:31:51;;;;;;;7.22;1.45;;;23.40;99.90;;;;;;5052725;28;20090;-75
2023/08/20 12:34:17;;;;;;;6.95;1.35;;;23.40;99.90;;;;;;5026064;28;20450;-76
2023/08/20 12:36:42;;;;;;;9.90;1.60;;;23.60;99.90;;;;;;5051732;28;20116;-75
2023/08/20 12:39:08;;;;;;;8.82;1.50;;;23.50;99.90;;;;;;5042782;28;20029;-76
2023/08/20 12:41:35;;;;;;;6.88;1.60;;;23.50;99.90;;;;;;5052333;28;20094;-76
2023/08/20 12:44:02;;;;;;;6.82;1.40;;;23.60;99.90;;;;;;5029030;28;20083;-76